Time;durP1;ratioP1;P1;durP2;ratioP2;P2;SDS_P1;SDS_P2;PMS_P1;PMS_P2;Temp;Humidity;BMP_temperature;BMP_pressure;BME280_temperature;BME280_humidity;BME280_pressure;Samples;Min_cycle;Max_cycle;Signal;HPM_P1;HPM_P2
2023/12/01 00:01:08;;;;;;;80.23;36.93;;;-0.60;99.90;;;;;;4940308;29;20210;-87
2023/12/01 00:03:45;;;;;;;80.57;37.20;;;-0.60;99.90;;;;;;4957613;29;20227;-85
2023/12/01 00:06:12;;;;;;;80.33;36.07;;;-0.60;99.90;;;;;;4957522;29;20264;-86
2023/12/01 00:08:40;;;;;;;82.53;37.87;;;-0.50;99.90;;;;;;4940084;29;20205;-84
2023/12/01 00:11:07;;;;;;;78.13;35.93;;;-0.50;99.90;;;;;;4957883;29;20621;-85
2023/12/01 00:13:34;;;;;;;81.93;36.40;;;-0.50;99.90;;;;;;4957512;29;20198;-85
2023/12/01 00:16:02;;;;;;;76.97;36.00;;;-0.50;99.90;;;;;;4957163;29;20197;-85
2023/12/01 00:18:29;;;;;;;79.43;36.77;;;-0.50;99.90;;;;;;4957172;29;20196;-86
2023/12/01 00:20:58;;;;;;;79.63;37.17;;;-0.60;99.90;;;;;;4957199;29;20191;-84
2023/12/01 00:23:25;;;;;;;78.57;36.10;;;-0.70;99.90;;;;;;4957358;29;20581;-81
2023/12/01 00:25:52;;;;;;;75.50;35.50;;;-0.70;99.90;;;;;;4957071;29;20390;-81
2023/12/01 00:28:19;;;;;;;81.77;37.07;;;-0.70;99.90;;;;;;4956965;29;20713;-82
2023/12/01 00:30:46;;;;;;;77.83;35.23;;;-0.60;99.90;;;;;;4957010;29;20221;-82
2023/12/01 00:33:14;;;;;;;76.50;35.03;;;-0.50;99.90;;;;;;4957087;29;20205;-84
2023/12/01 00:35:42;;;;;;;81.80;35.90;;;-0.50;99.90;;;;;;4956990;29;20643;-84
2023/12/01 00:38:09;;;;;;;76.60;35.07;;;-0.50;99.90;;;;;;4956933;28;20200;-84
2023/12/01 00:40:36;;;;;;;79.67;34.60;;;-0.60;99.90;;;;;;4939343;29;20313;-83
2023/12/01 00:43:04;;;;;;;78.27;34.87;;;-0.60;99.90;;;;;;4939275;29;20225;-85
2023/12/01 00:45:32;;;;;;;74.50;33.57;;;-0.60;99.90;;;;;;4942097;29;20277;-84
2023/12/01 00:48:00;;;;;;;80.33;34.27;;;-0.60;99.90;;;;;;4939817;29;20192;-84
2023/12/01 00:50:27;;;;;;;74.57;33.53;;;-0.50;99.90;;;;;;4956650;29;20244;-84
2023/12/01 00:52:54;;;;;;;73.60;34.53;;;-0.50;99.90;;;;;;4956702;29;20570;-84
2023/12/01 00:55:22;;;;;;;71.30;33.00;;;-0.50;99.90;;;;;;4936175;29;20231;-84
2023/12/01 00:57:53;;;;;;;72.43;34.83;;;-0.50;99.90;;;;;;4936405;29;20200;-84
2023/12/01 01:00:23;;;;;;;79.53;35.23;;;-0.50;99.90;;;;;;4937703;29;20290;-83
2023/12/01 01:02:50;;;;;;;70.37;33.40;;;-0.60;99.90;;;;;;4935977;29;20226;-84
2023/12/01 01:05:18;;;;;;;74.43;35.00;;;-0.70;99.90;;;;;;4948275;29;20195;-84
2023/12/01 01:07:45;;;;;;;80.53;34.93;;;-0.60;99.90;;;;;;4950193;29;20205;-82
2023/12/01 01:10:12;;;;;;;78.37;34.37;;;-0.60;99.90;;;;;;4944966;29;20240;-84
2023/12/01 01:12:39;;;;;;;74.20;34.80;;;-0.60;99.90;;;;;;4937513;29;20673;-83
2023/12/01 01:15:07;;;;;;;81.77;35.57;;;-0.60;99.90;;;;;;4937548;29;20203;-83
2023/12/01 01:17:34;;;;;;;76.50;34.13;;;-0.50;99.90;;;;;;4936226;29;20667;-86
2023/12/01 01:20:03;;;;;;;74.03;35.30;;;-0.50;99.90;;;;;;4936315;29;20194;-85
2023/12/01 01:22:32;;;;;;;77.00;34.90;;;-0.50;99.90;;;;;;4937955;29;20221;-85
2023/12/01 01:25:00;;;;;;;80.83;36.10;;;-0.50;99.90;;;;;;4952079;29;20210;-84
2023/12/01 01:27:27;;;;;;;74.30;34.53;;;-0.50;99.90;;;;;;4920278;29;20689;-84
2023/12/01 01:29:55;;;;;;;76.13;35.00;;;-0.50;99.90;;;;;;4935978;29;20681;-84
2023/12/01 01:32:22;;;;;;;76.90;34.93;;;-0.50;99.90;;;;;;4937501;29;20238;-87
2023/12/01 01:34:50;;;;;;;75.17;36.80;;;-0.60;99.90;;;;;;4936009;29;20225;-81
2023/12/01 01:37:17;;;;;;;78.83;36.37;;;-0.50;99.90;;;;;;4936751;29;20254;-82
2023/12/01 01:39:45;;;;;;;81.10;36.17;;;-0.40;99.90;;;;;;4936948;29;20198;-82
2023/12/01 01:42:12;;;;;;;74.77;35.93;;;-0.40;99.90;;;;;;4951421;29;20246;-81
2023/12/01 01:44:39;;;;;;;77.87;35.53;;;-0.40;99.90;;;;;;4935424;29;20194;-81
2023/12/01 01:47:06;;;;;;;81.87;36.63;;;-0.40;99.90;;;;;;4936618;29;20187;-81
2023/12/01 01:49:34;;;;;;;81.73;37.60;;;-0.40;99.90;;;;;;4936518;29;20194;-81
2023/12/01 01:52:02;;;;;;;82.33;35.53;;;-0.30;99.90;;;;;;4919672;29;20665;-82
2023/12/01 01:54:30;;;;;;;82.60;36.57;;;-0.30;99.90;;;;;;4936835;29;20201;-81
2023/12/01 01:56:57;;;;;;;78.53;35.93;;;-0.40;99.90;;;;;;4955380;29;20251;-81
2023/12/01 01:59:25;;;;;;;77.90;37.07;;;-0.50;99.90;;;;;;4955829;29;20284;-81
2023/12/01 02:01:52;;;;;;;85.90;36.73;;;-0.50;99.90;;;;;;4955365;29;20190;-81
2023/12/01 02:04:19;;;;;;;83.80;38.00;;;-0.60;99.90;;;;;;4938264;29;20225;-81
2023/12/01 02:06:46;;;;;;;80.93;37.30;;;-0.50;99.90;;;;;;4955382;29;20185;-81
2023/12/01 02:09:14;;;;;;;85.43;37.47;;;-0.50;99.90;;;;;;4955210;29;20264;-81
2023/12/01 02:11:42;;;;;;;85.90;38.77;;;-0.40;99.90;;;;;;4955301;29;20256;-82
2023/12/01 02:14:09;;;;;;;83.90;38.03;;;-0.40;99.90;;;;;;4955669;29;20198;-82
2023/12/01 02:16:45;;;;;;;85.40;37.53;;;-0.50;99.90;;;;;;4961281;29;20273;-79
2023/12/01 02:19:13;;;;;;;82.20;36.70;;;-0.50;99.90;;;;;;4939981;29;20280;-80
2023/12/01 02:21:47;;;;;;;83.53;37.47;;;-0.60;99.90;;;;;;4957353;29;20220;-81
2023/12/01 02:24:15;;;;;;;85.50;38.30;;;-0.70;99.90;;;;;;4939639;29;20231;-81
2023/12/01 02:26:42;;;;;;;91.43;38.47;;;-0.80;99.90;;;;;;4960175;29;20643;-82
2023/12/01 02:29:09;;;;;;;84.03;38.10;;;-0.80;99.90;;;;;;4952673;29;20648;-81
2023/12/01 02:31:37;;;;;;;80.23;36.93;;;-0.90;99.90;;;;;;4953177;29;20266;-82
2023/12/01 02:34:04;;;;;;;92.10;37.30;;;-1.00;99.90;;;;;;4969959;29;20193;-81
2023/12/01 02:36:31;;;;;;;81.30;36.83;;;-0.90;99.90;;;;;;4969019;29;20438;-85
2023/12/01 02:38:59;;;;;;;84.90;37.50;;;-1.20;99.90;;;;;;4958650;29;20198;-84
2023/12/01 02:41:26;;;;;;;85.43;38.67;;;-1.10;99.90;;;;;;4937409;29;20700;-83
2023/12/01 02:43:54;;;;;;;83.90;37.80;;;-1.10;99.90;;;;;;4954515;29;20260;-84
2023/12/01 02:46:22;;;;;;;78.97;36.47;;;-1.10;99.90;;;;;;4954629;29;20283;-83
2023/12/01 02:48:51;;;;;;;87.90;39.20;;;-1.20;99.90;;;;;;4921705;29;20241;-83
2023/12/01 02:51:18;;;;;;;88.90;38.37;;;-1.20;99.90;;;;;;4953488;29;20194;-84
2023/12/01 02:53:45;;;;;;;86.53;37.23;;;-1.30;99.90;;;;;;4938039;29;20277;-83
2023/12/01 02:56:12;;;;;;;83.70;38.23;;;-1.20;99.90;;;;;;4954818;29;20334;-82
2023/12/01 02:58:40;;;;;;;87.00;37.60;;;-1.10;99.90;;;;;;4937538;29;20199;-82
2023/12/01 03:01:07;;;;;;;83.07;38.23;;;-1.10;99.90;;;;;;4954593;29;20285;-81
2023/12/01 03:03:35;;;;;;;84.83;36.20;;;-1.10;99.90;;;;;;4937084;29;20714;-85
2023/12/01 03:06:03;;;;;;;83.37;37.40;;;-1.10;99.90;;;;;;4937417;29;20207;-83
2023/12/01 03:08:30;;;;;;;83.33;37.70;;;-1.20;99.90;;;;;;4937782;29;20198;-84
2023/12/01 03:10:57;;;;;;;81.33;36.63;;;-1.20;99.90;;;;;;4937214;29;20735;-84
2023/12/01 03:13:24;;;;;;;78.23;36.17;;;-1.20;99.90;;;;;;4954334;28;20192;-84
2023/12/01 03:15:51;;;;;;;77.83;35.50;;;-1.20;99.90;;;;;;4954424;29;20201;-84
2023/12/01 03:18:20;;;;;;;81.43;36.23;;;-1.30;99.90;;;;;;4953522;29;20569;-84
2023/12/01 03:20:50;;;;;;;75.40;35.03;;;-1.30;99.90;;;;;;4954189;29;20196;-84
2023/12/01 03:23:17;;;;;;;85.57;37.40;;;-1.40;99.90;;;;;;4937071;29;20332;-84
2023/12/01 03:25:44;;;;;;;85.63;37.73;;;-1.40;99.90;;;;;;4954401;29;20284;-84
2023/12/01 03:28:11;;;;;;;81.07;35.87;;;-1.50;99.90;;;;;;4954252;29;20718;-84
2023/12/01 03:30:38;;;;;;;81.57;35.33;;;-1.60;99.90;;;;;;4954151;29;20279;-84
2023/12/01 03:33:05;;;;;;;86.53;36.57;;;-1.60;99.90;;;;;;4954367;29;20291;-84
2023/12/01 03:35:33;;;;;;;83.67;38.27;;;-1.60;99.90;;;;;;4937229;29;20197;-83
2023/12/01 03:38:00;;;;;;;88.90;38.50;;;-1.80;99.90;;;;;;4937065;29;20310;-83
2023/12/01 03:40:27;;;;;;;83.97;37.97;;;-1.90;99.90;;;;;;4937169;29;20252;-84
2023/12/01 03:42:55;;;;;;;90.33;38.90;;;-2.00;99.90;;;;;;4937178;29;20200;-84
2023/12/01 03:45:23;;;;;;;85.37;38.03;;;-1.90;99.90;;;;;;4952706;29;20203;-85
2023/12/01 03:47:51;;;;;;;88.87;38.33;;;-1.90;99.90;;;;;;4936948;29;20499;-84
2023/12/01 03:50:19;;;;;;;89.70;38.60;;;-1.90;99.90;;;;;;4953904;29;20197;-84
2023/12/01 03:52:49;;;;;;;85.70;37.93;;;-2.00;99.90;;;;;;4954026;29;20199;-82
2023/12/01 03:55:17;;;;;;;84.27;39.23;;;-2.00;99.90;;;;;;4933635;29;20343;-82
2023/12/01 03:57:45;;;;;;;89.27;38.10;;;-1.90;99.90;;;;;;4933565;29;21202;-82
2023/12/01 04:00:16;;;;;;;89.07;39.17;;;-1.90;99.90;;;;;;4935050;29;20205;-81
2023/12/01 04:02:46;;;;;;;85.00;37.60;;;-1.90;99.90;;;;;;4918095;29;20251;-82
2023/12/01 04:05:18;;;;;;;88.77;39.10;;;-2.00;99.90;;;;;;4934812;29;20660;-81
2023/12/01 04:07:51;;;;;;;93.80;39.27;;;-2.10;99.90;;;;;;4933768;29;20264;-81
2023/12/01 04:10:21;;;;;;;94.33;37.73;;;-2.00;99.90;;;;;;4934636;29;20248;-81
2023/12/01 04:12:48;;;;;;;88.20;38.90;;;-2.00;99.90;;;;;;4933241;29;20202;-81
2023/12/01 04:15:18;;;;;;;89.60;38.93;;;-2.00;99.90;;;;;;4934548;29;20195;-79
2023/12/01 04:17:47;;;;;;;92.90;39.13;;;-2.00;99.90;;;;;;4934805;29;20565;-79
2023/12/01 04:20:26;;;;;;;96.20;40.43;;;-2.00;99.90;;;;;;4937050;29;20205;-79
2023/12/01 04:22:57;;;;;;;99.27;40.67;;;-2.10;99.90;;;;;;4937778;28;20278;-79
2023/12/01 04:25:25;;;;;;;94.37;40.67;;;-2.20;99.90;;;;;;4952803;29;20206;-79
2023/12/01 04:27:53;;;;;;;94.03;40.47;;;-2.20;99.90;;;;;;4936738;29;20205;-79
2023/12/01 04:30:22;;;;;;;96.17;40.37;;;-2.30;99.90;;;;;;4938008;29;20216;-80
2023/12/01 04:32:54;;;;;;;92.67;38.73;;;-2.40;99.90;;;;;;4936430;29;20709;-79
2023/12/01 04:35:29;;;;;;;88.33;38.50;;;-2.40;99.90;;;;;;4938036;29;20286;-79
2023/12/01 04:37:58;;;;;;;99.87;40.07;;;-2.40;99.90;;;;;;4937014;29;20238;-80
2023/12/01 04:40:29;;;;;;;93.07;38.87;;;-2.40;99.90;;;;;;4936789;29;20282;-80
2023/12/01 04:42:58;;;;;;;88.47;37.77;;;-2.40;99.90;;;;;;4936851;29;20204;-79
2023/12/01 04:45:27;;;;;;;86.87;37.73;;;-2.40;99.90;;;;;;4937518;29;20196;-79
2023/12/01 04:47:55;;;;;;;97.63;38.90;;;-2.50;99.90;;;;;;4936209;29;20675;-78
2023/12/01 04:50:28;;;;;;;94.60;39.10;;;-2.60;99.90;;;;;;4935869;29;20208;-78
2023/12/01 04:52:57;;;;;;;88.30;38.07;;;-2.60;99.90;;;;;;4937378;29;20210;-79
2023/12/01 04:55:26;;;;;;;84.03;37.57;;;-2.60;99.90;;;;;;4945580;29;20243;-79
2023/12/01 04:57:54;;;;;;;89.47;38.10;;;-2.60;99.90;;;;;;4939632;29;20303;-79
2023/12/01 05:00:28;;;;;;;89.73;38.60;;;-2.60;99.90;;;;;;4939745;29;20302;-78
2023/12/01 05:02:59;;;;;;;91.50;37.93;;;-2.60;99.90;;;;;;4955317;29;20202;-79
2023/12/01 05:05:33;;;;;;;86.83;38.83;;;-2.50;99.90;;;;;;4956139;29;20307;-79
2023/12/01 05:08:04;;;;;;;85.53;36.60;;;-2.60;99.90;;;;;;4955363;29;20286;-79
2023/12/01 05:10:33;;;;;;;95.80;39.03;;;-2.60;99.90;;;;;;4956526;29;20211;-81
2023/12/01 05:13:11;;;;;;;88.80;37.70;;;-2.60;99.90;;;;;;4956428;29;20209;-80
2023/12/01 05:15:38;;;;;;;91.60;38.57;;;-2.70;99.90;;;;;;4938927;29;20731;-79
2023/12/01 05:18:10;;;;;;;99.93;37.77;;;-2.80;99.90;;;;;;4956463;29;20616;-79
2023/12/01 05:20:38;;;;;;;98.07;37.27;;;-2.80;99.90;;;;;;4956221;29;20191;-79
2023/12/01 05:23:10;;;;;;;99.00;38.60;;;-2.80;99.90;;;;;;4956700;29;20205;-80
2023/12/01 05:25:41;;;;;;;94.00;38.43;;;-2.90;99.90;;;;;;4939014;29;20593;-79
2023/12/01 05:28:10;;;;;;;109.20;39.90;;;-2.90;99.90;;;;;;4939611;29;20301;-79
2023/12/01 05:30:40;;;;;;;101.00;39.13;;;-2.90;99.90;;;;;;4954651;28;20222;-79
2023/12/01 05:33:08;;;;;;;109.73;39.93;;;-3.00;99.90;;;;;;4956090;29;20240;-80
2023/12/01 05:35:37;;;;;;;103.13;38.80;;;-2.90;99.90;;;;;;4938813;29;20530;-80
2023/12/01 05:38:05;;;;;;;108.47;39.70;;;-3.00;99.90;;;;;;4955971;29;20286;-81
2023/12/01 05:40:36;;;;;;;118.23;40.53;;;-3.00;99.90;;;;;;4955802;29;20228;-79
2023/12/01 05:43:05;;;;;;;129.57;39.53;;;-2.90;99.90;;;;;;4938356;29;20215;-79
2023/12/01 05:45:35;;;;;;;183.77;40.53;;;-3.10;99.90;;;;;;4954325;29;20599;-80
2023/12/01 05:48:06;;;;;;;120.70;40.30;;;-3.10;99.90;;;;;;4923763;29;20341;-78
2023/12/01 05:50:35;;;;;;;108.40;37.67;;;-3.30;99.90;;;;;;4955683;29;20541;-79
2023/12/01 05:53:07;;;;;;;108.77;36.50;;;-3.30;99.90;;;;;;4956420;29;20609;-79
2023/12/01 05:55:35;;;;;;;127.10;38.03;;;-3.40;99.90;;;;;;4938219;29;20230;-81
2023/12/01 05:58:09;;;;;;;100.20;36.87;;;-3.40;99.90;;;;;;4955352;29;20269;-81
2023/12/01 06:00:37;;;;;;;105.13;36.67;;;-3.40;99.90;;;;;;4938524;29;20559;-81
2023/12/01 06:03:07;;;;;;;99.33;36.10;;;-3.40;99.90;;;;;;4955284;29;20273;-81
2023/12/01 06:05:36;;;;;;;103.53;37.20;;;-3.50;99.90;;;;;;4955461;29;20508;-78
2023/12/01 06:08:05;;;;;;;113.83;39.00;;;-3.40;99.90;;;;;;4956319;29;20206;-83
2023/12/01 06:10:33;;;;;;;108.30;38.90;;;-3.30;99.90;;;;;;4937922;29;20226;-83
2023/12/01 06:13:00;;;;;;;122.40;37.33;;;-3.30;99.90;;;;;;4955113;29;20648;-83
2023/12/01 06:15:31;;;;;;;99.30;36.50;;;-3.40;99.90;;;;;;4954928;29;20201;-82
2023/12/01 06:17:59;;;;;;;112.60;37.33;;;-3.40;99.90;;;;;;4955229;29;20241;-86
2023/12/01 06:20:29;;;;;;;111.93;38.37;;;-3.30;99.90;;;;;;4938226;29;20743;-85
2023/12/01 06:22:59;;;;;;;107.70;36.33;;;-3.30;99.90;;;;;;4937562;29;20238;-85
2023/12/01 06:25:30;;;;;;;100.47;35.73;;;-3.20;99.90;;;;;;4937497;29;20254;-84
2023/12/01 06:28:04;;;;;;;103.63;37.30;;;-3.30;99.90;;;;;;4937720;29;20200;-85
2023/12/01 06:30:35;;;;;;;115.27;37.43;;;-3.30;99.90;;;;;;4954678;29;20242;-83
2023/12/01 06:33:06;;;;;;;126.80;40.93;;;-3.30;99.90;;;;;;4937905;29;20194;-83
2023/12/01 06:35:33;;;;;;;107.07;36.87;;;-3.30;99.90;;;;;;4954550;29;20206;-83
2023/12/01 06:38:01;;;;;;;110.03;37.20;;;-3.20;99.90;;;;;;4937220;29;20273;-82
2023/12/01 06:40:28;;;;;;;112.13;38.07;;;-3.20;99.90;;;;;;4954212;28;20223;-82
2023/12/01 06:42:55;;;;;;;107.80;37.60;;;-3.30;99.90;;;;;;4936717;29;20664;-81
2023/12/01 06:45:28;;;;;;;110.33;37.37;;;-3.30;99.90;;;;;;4954400;29;20255;-82
2023/12/01 06:47:59;;;;;;;101.67;35.40;;;-3.30;99.90;;;;;;4937563;29;20294;-81
2023/12/01 06:50:29;;;;;;;106.47;36.67;;;-3.30;99.90;;;;;;4937706;29;20729;-82
2023/12/01 06:53:00;;;;;;;105.90;37.57;;;-3.20;99.90;;;;;;4954211;29;20219;-81
2023/12/01 06:55:28;;;;;;;118.03;37.13;;;-3.20;99.90;;;;;;4954193;29;20244;-82
2023/12/01 06:57:56;;;;;;;111.90;36.70;;;-3.10;99.90;;;;;;4954277;29;20202;-82
2023/12/01 07:00:29;;;;;;;109.90;37.73;;;-3.20;99.90;;;;;;4921470;29;20230;-82
2023/12/01 07:03:01;;;;;;;113.20;37.80;;;-3.10;99.90;;;;;;4954560;29;20194;-82
2023/12/01 07:05:29;;;;;;;110.30;38.30;;;-3.10;99.90;;;;;;4954048;29;20225;-82
2023/12/01 07:07:58;;;;;;;112.80;37.90;;;-3.10;99.90;;;;;;4937133;29;20199;-82
2023/12/01 07:10:26;;;;;;;105.03;36.10;;;-3.00;99.90;;;;;;4936715;29;20225;-82
2023/12/01 07:12:54;;;;;;;119.23;37.50;;;-3.00;99.90;;;;;;4954288;29;20213;-82
2023/12/01 07:15:24;;;;;;;101.90;34.70;;;-3.20;99.90;;;;;;4954419;29;20198;-82
2023/12/01 07:17:54;;;;;;;105.90;35.93;;;-3.30;99.90;;;;;;4936780;29;20210;-82
2023/12/01 07:20:23;;;;;;;109.77;35.80;;;-3.40;99.90;;;;;;4953960;29;20282;-82
2023/12/01 07:22:52;;;;;;;116.27;37.27;;;-3.40;99.90;;;;;;4954027;29;20194;-82
2023/12/01 07:25:23;;;;;;;104.80;35.70;;;-3.20;99.90;;;;;;4953890;29;20245;-81
2023/12/01 07:27:58;;;;;;;100.33;35.40;;;-3.00;99.90;;;;;;4937602;29;20211;-81
2023/12/01 07:30:29;;;;;;;102.90;34.60;;;-3.10;99.90;;;;;;4954105;29;20798;-82
2023/12/01 07:32:59;;;;;;;96.80;34.43;;;-3.10;99.90;;;;;;4953941;29;20202;-82
2023/12/01 07:35:26;;;;;;;97.13;34.47;;;-3.30;99.90;;;;;;4936798;29;20198;-82
2023/12/01 07:37:53;;;;;;;91.50;32.80;;;-3.50;99.90;;;;;;4936643;29;20630;-82
2023/12/01 07:40:23;;;;;;;87.40;31.30;;;-3.60;99.90;;;;;;4953824;29;20198;-80
2023/12/01 07:42:54;;;;;;;100.13;34.37;;;-3.60;99.90;;;;;;4953963;29;20190;-81
2023/12/01 07:45:23;;;;;;;104.07;33.83;;;-3.40;99.90;;;;;;4937430;29;20218;-81
2023/12/01 07:47:52;;;;;;;100.17;33.23;;;-3.40;99.90;;;;;;4953893;29;20196;-81
2023/12/01 07:50:20;;;;;;;100.30;34.23;;;-3.40;99.90;;;;;;4936879;29;20261;-84
2023/12/01 07:52:50;;;;;;;98.47;34.97;;;-3.40;99.90;;;;;;4955430;28;20202;-82
2023/12/01 07:55:19;;;;;;;104.53;33.93;;;-3.60;99.90;;;;;;4957573;29;20235;-82
2023/12/01 07:57:47;;;;;;;92.73;32.10;;;-3.60;99.90;;;;;;4940490;29;20699;-82
2023/12/01 08:00:16;;;;;;;101.40;34.80;;;-3.40;99.90;;;;;;4957519;29;20221;-81
2023/12/01 08:02:51;;;;;;;98.17;32.33;;;-3.50;99.90;;;;;;4940561;29;20198;-82
2023/12/01 08:05:21;;;;;;;86.40;32.43;;;-3.50;99.90;;;;;;4941084;29;20228;-82
2023/12/01 08:07:51;;;;;;;99.30;35.13;;;-3.40;99.90;;;;;;4957696;29;20198;-82
2023/12/01 08:10:24;;;;;;;93.77;32.53;;;-3.30;99.90;;;;;;4956134;29;20200;-83
2023/12/01 08:12:56;;;;;;;94.67;32.33;;;-3.30;99.90;;;;;;4957247;29;20194;-82
2023/12/01 08:15:26;;;;;;;90.87;32.33;;;-3.20;99.90;;;;;;4957461;29;20759;-82
2023/12/01 08:17:56;;;;;;;93.47;32.83;;;-3.30;99.90;;;;;;4940503;29;20544;-82
2023/12/01 08:20:25;;;;;;;84.57;30.70;;;-3.20;99.90;;;;;;4939918;29;20207;-83
2023/12/01 08:22:54;;;;;;;83.50;28.80;;;-3.20;99.90;;;;;;4939927;29;20286;-82
2023/12/01 08:25:22;;;;;;;83.27;30.23;;;-3.50;99.90;;;;;;4957074;29;20273;-82
2023/12/01 08:27:52;;;;;;;87.80;30.70;;;-3.60;99.90;;;;;;4955809;29;20199;-81
2023/12/01 08:30:20;;;;;;;79.60;30.07;;;-3.50;99.90;;;;;;4940087;29;20209;-81
2023/12/01 08:32:53;;;;;;;84.10;29.30;;;-3.40;99.90;;;;;;4957574;29;20235;-82
2023/12/01 08:35:21;;;;;;;81.47;30.83;;;-3.30;99.90;;;;;;4957194;29;20194;-82
2023/12/01 08:37:51;;;;;;;85.57;31.30;;;-3.20;99.90;;;;;;4939876;29;20190;-81
2023/12/01 08:40:19;;;;;;;79.93;30.13;;;-3.20;99.90;;;;;;4940138;29;20192;-82
2023/12/01 08:42:53;;;;;;;69.87;27.10;;;-3.20;99.90;;;;;;4940479;29;20207;-82
2023/12/01 08:45:21;;;;;;;76.80;26.97;;;-3.30;99.90;;;;;;4956862;29;20219;-80
2023/12/01 08:47:48;;;;;;;80.40;26.70;;;-3.60;99.90;;;;;;4956684;29;20195;-80
2023/12/01 08:50:17;;;;;;;70.03;26.80;;;-3.60;99.90;;;;;;4956433;29;20651;-82
2023/12/01 08:52:45;;;;;;;79.63;29.13;;;-3.50;99.90;;;;;;4939460;29;20203;-82
2023/12/01 08:55:13;;;;;;;71.60;27.37;;;-3.40;99.90;;;;;;4938843;29;20234;-82
2023/12/01 08:57:40;;;;;;;77.00;26.90;;;-3.40;99.90;;;;;;4939272;29;20195;-81
2023/12/01 09:00:08;;;;;;;76.30;26.47;;;-3.50;99.90;;;;;;4939122;29;20584;-81
2023/12/01 09:02:36;;;;;;;83.10;28.90;;;-3.40;99.90;;;;;;4956261;29;20200;-81
2023/12/01 09:05:04;;;;;;;74.87;27.70;;;-3.70;99.90;;;;;;4938755;29;20240;-82
2023/12/01 09:07:31;;;;;;;70.67;26.07;;;-3.90;99.90;;;;;;4939153;29;20197;-82
2023/12/01 09:09:59;;;;;;;74.07;25.53;;;-3.90;99.90;;;;;;4956503;29;20251;-82
2023/12/01 09:12:26;;;;;;;67.10;25.23;;;-4.00;99.90;;;;;;4955964;29;20214;-83
2023/12/01 09:14:54;;;;;;;66.80;24.70;;;-4.00;99.90;;;;;;4956035;29;20224;-82
2023/12/01 09:17:22;;;;;;;74.00;26.03;;;-4.10;99.90;;;;;;4939364;29;20670;-83
2023/12/01 09:19:50;;;;;;;72.97;24.63;;;-4.00;99.90;;;;;;4939367;29;20541;-83
2023/12/01 09:22:17;;;;;;;64.80;23.27;;;-4.00;99.90;;;;;;4939102;29;20246;-82
2023/12/01 09:24:45;;;;;;;61.13;23.20;;;-4.10;99.90;;;;;;4943971;29;20259;-82
2023/12/01 09:27:12;;;;;;;61.37;22.90;;;-4.20;99.90;;;;;;4964372;29;20220;-79
2023/12/01 09:29:40;;;;;;;58.47;22.50;;;-4.30;99.90;;;;;;4965406;29;20191;-79
2023/12/01 09:32:07;;;;;;;72.73;24.80;;;-4.30;99.90;;;;;;4969235;28;20281;-81
2023/12/01 09:34:35;;;;;;;64.50;24.03;;;-4.50;99.90;;;;;;4964187;29;20269;-82
2023/12/01 09:37:02;;;;;;;70.23;24.60;;;-4.40;99.90;;;;;;4955831;29;20200;-81
2023/12/01 09:39:30;;;;;;;67.90;25.70;;;-4.50;99.90;;;;;;4939017;29;20194;-82
2023/12/01 09:42:00;;;;;;;65.33;24.37;;;-4.50;99.90;;;;;;4956505;29;20219;-82
2023/12/01 09:44:27;;;;;;;72.87;24.93;;;-4.70;99.90;;;;;;4954665;29;20285;-82
2023/12/01 09:46:58;;;;;;;67.53;24.27;;;-4.60;99.90;;;;;;4955556;29;20222;-83
2023/12/01 09:49:25;;;;;;;74.43;25.50;;;-4.60;99.90;;;;;;4955587;29;20643;-82
2023/12/01 09:51:52;;;;;;;77.57;26.47;;;-4.60;99.90;;;;;;4955527;29;20198;-81
2023/12/01 09:54:20;;;;;;;81.73;26.10;;;-4.60;99.90;;;;;;4954256;29;20561;-83
2023/12/01 09:56:48;;;;;;;78.83;27.17;;;-4.50;99.90;;;;;;4937957;29;20234;-84
2023/12/01 09:59:16;;;;;;;81.17;27.50;;;-4.40;99.90;;;;;;4955142;29;20204;-84
2023/12/01 10:01:46;;;;;;;82.77;27.67;;;-4.40;99.90;;;;;;4938292;29;20620;-84
2023/12/01 10:04:14;;;;;;;78.60;28.53;;;-4.30;99.90;;;;;;4954936;29;20694;-84
2023/12/01 10:06:42;;;;;;;84.50;28.40;;;-4.30;99.90;;;;;;4937993;29;20226;-85
2023/12/01 10:09:12;;;;;;;80.87;26.97;;;-4.10;99.90;;;;;;4955512;29;20223;-90
2023/12/01 10:11:40;;;;;;;85.20;28.23;;;-4.10;99.90;;;;;;4938371;29;20222;-86
2023/12/01 10:14:08;;;;;;;81.00;28.33;;;-3.90;99.90;;;;;;4955536;29;20678;-87
2023/12/01 10:16:36;;;;;;;76.17;28.13;;;-3.80;99.90;;;;;;4937464;29;20662;-89
2023/12/01 10:19:05;;;;;;;80.60;27.37;;;-3.80;99.90;;;;;;4938301;29;20678;-88
2023/12/01 10:21:48;;;;;;;69.60;24.50;;;-3.70;99.90;;;;;;4954268;29;20186;-88
2023/12/01 10:24:20;;;;;;;71.63;25.57;;;-3.70;99.90;;;;;;4921724;29;20771;-89
2023/12/01 10:26:53;;;;;;;69.07;26.40;;;-3.90;99.90;;;;;;4937759;29;20234;-87
2023/12/01 10:29:30;;;;;;;66.37;25.47;;;-3.80;99.90;;;;;;4958420;29;20281;-92
2023/12/01 10:32:12;;;;;;;69.77;24.83;;;-3.80;99.90;;;;;;4940833;29;20199;-89
2023/12/01 10:34:52;;;;;;;69.80;24.53;;;-3.70;99.90;;;;;;4922891;29;20647;-90
2023/12/01 10:37:22;;;;;;;65.20;23.97;;;-3.60;99.90;;;;;;4938580;29;20208;-87
2023/12/01 10:39:57;;;;;;;65.60;24.50;;;-3.60;99.90;;;;;;4955033;29;20269;-89
2023/12/01 10:42:29;;;;;;;60.23;23.77;;;-3.70;99.90;;;;;;4944209;29;20317;-90
2023/12/01 10:45:03;;;;;;;59.60;23.03;;;-3.80;99.90;;;;;;4961488;29;20777;-89
2023/12/01 10:47:32;;;;;;;60.57;23.47;;;-3.70;99.90;;;;;;4938494;29;20290;-87
2023/12/01 10:50:02;;;;;;;61.47;23.10;;;-3.70;99.90;;;;;;4937329;29;20204;-86
2023/12/01 10:52:32;;;;;;;59.63;22.70;;;-3.70;99.90;;;;;;4955641;29;20203;-84
2023/12/01 10:54:59;;;;;;;57.07;22.83;;;-3.70;99.90;;;;;;4953995;29;20235;-86
2023/12/01 10:57:36;;;;;;;62.87;23.17;;;-3.70;99.90;;;;;;4955100;29;20222;-87
2023/12/01 11:00:05;;;;;;;58.07;21.63;;;-3.80;99.90;;;;;;4954402;29;20207;-87
2023/12/01 11:02:37;;;;;;;54.73;20.87;;;-3.80;99.90;;;;;;4937188;29;20277;-86
2023/12/01 11:05:08;;;;;;;54.03;20.83;;;-3.90;99.90;;;;;;4937239;29;20202;-85
2023/12/01 11:08:10;;;;;;;58.13;20.97;;;-3.70;99.90;;;;;;4954491;29;20249;-85
2023/12/01 11:10:59;;;;;;;47.87;19.57;;;-3.70;99.90;;;;;;4955887;28;20218;-85
2023/12/01 11:14:01;;;;;;;55.53;21.07;;;-3.70;99.90;;;;;;4937522;29;20222;-87
2023/12/01 11:16:31;;;;;;;59.17;21.17;;;-3.60;99.90;;;;;;4921550;29;20194;-85
2023/12/01 11:18:59;;;;;;;59.90;22.17;;;-3.60;99.90;;;;;;4954563;28;20191;-88
2023/12/01 11:21:28;;;;;;;58.37;22.13;;;-3.60;99.90;;;;;;4937192;29;20202;-86
2023/12/01 11:24:16;;;;;;;62.67;22.67;;;-3.50;99.90;;;;;;4952936;29;20206;-82
2023/12/01 11:26:47;;;;;;;64.77;22.40;;;-3.40;99.90;;;;;;4953751;28;20230;-83
2023/12/01 11:29:19;;;;;;;63.03;22.67;;;-3.30;99.90;;;;;;4957880;29;20558;-81
2023/12/01 11:31:52;;;;;;;60.80;23.37;;;-3.20;99.90;;;;;;4940643;29;20199;-81
2023/12/01 11:34:20;;;;;;;58.87;22.47;;;-3.20;99.90;;;;;;4958171;29;20430;-82
2023/12/01 11:36:52;;;;;;;63.60;23.30;;;-3.20;99.90;;;;;;4957633;29;20282;-81
2023/12/01 11:39:27;;;;;;;62.93;23.17;;;-3.10;99.90;;;;;;4941098;29;20453;-82
2023/12/01 11:41:58;;;;;;;68.40;24.37;;;-2.90;99.90;;;;;;4957717;29;20253;-83
2023/12/01 11:44:31;;;;;;;65.77;24.53;;;-2.80;99.90;;;;;;4956240;29;20197;-83
2023/12/01 11:47:00;;;;;;;61.10;22.57;;;-2.80;99.90;;;;;;4957513;29;20280;-81
2023/12/01 11:49:38;;;;;;;58.70;22.73;;;-2.90;99.90;;;;;;4957641;29;20284;-82
2023/12/01 11:52:13;;;;;;;56.97;21.77;;;-2.90;99.90;;;;;;4940595;29;20211;-83
2023/12/01 11:54:41;;;;;;;57.97;21.80;;;-3.00;99.90;;;;;;4957614;29;20197;-82
2023/12/01 11:57:12;;;;;;;60.67;23.57;;;-3.10;99.90;;;;;;4957421;29;20289;-80
2023/12/01 11:59:40;;;;;;;64.63;23.23;;;-3.20;99.90;;;;;;4957885;29;20190;-84
2023/12/01 12:02:08;;;;;;;62.33;21.73;;;-3.10;99.90;;;;;;4941220;29;20262;-86
2023/12/01 12:04:39;;;;;;;60.97;22.73;;;-3.10;99.90;;;;;;4958337;29;20195;-87
2023/12/01 12:07:08;;;;;;;63.67;22.97;;;-3.20;99.90;;;;;;4960092;29;20619;-86
2023/12/01 12:09:37;;;;;;;62.47;22.90;;;-3.20;99.90;;;;;;4958786;28;20199;-89
2023/12/01 12:12:09;;;;;;;64.03;23.27;;;-3.00;99.90;;;;;;4947856;29;20214;-87
2023/12/01 12:14:40;;;;;;;61.73;22.27;;;-3.00;99.90;;;;;;4944031;29;20190;-87
2023/12/01 12:17:08;;;;;;;60.67;22.57;;;-3.00;99.90;;;;;;4944137;29;20576;-88
2023/12/01 12:19:43;;;;;;;60.57;23.50;;;-3.00;99.90;;;;;;4962037;29;20219;-90
2023/12/01 12:22:20;;;;;;;60.03;23.27;;;-2.90;99.90;;;;;;4951324;29;20275;-87
2023/12/01 12:24:48;;;;;;;64.67;24.27;;;-2.90;99.90;;;;;;4957193;29;20553;-88
2023/12/01 12:27:16;;;;;;;61.20;24.43;;;-2.80;99.90;;;;;;4959285;29;20284;-89
2023/12/01 12:29:45;;;;;;;66.23;24.73;;;-2.90;99.90;;;;;;4961185;29;20224;-88
2023/12/01 12:32:14;;;;;;;66.07;23.93;;;-2.90;99.90;;;;;;4944786;29;20194;-86
2023/12/01 12:34:42;;;;;;;61.20;23.33;;;-2.90;99.90;;;;;;4940333;29;20188;-87
2023/12/01 12:37:13;;;;;;;73.13;24.40;;;-3.00;99.90;;;;;;4940528;29;20719;-86